CFG309 EDDF-KLAX
Flight info
| Callsign | CFG309 |
|---|---|
| Flight time | N/A |
| Altitude | 36000 |
| Route | OBOKA4G OBOKA Z29 TORNU DCT RAVLO Y70 OTBED L60 PENIL M144 BAGSO DCT RESNO DCT JANJO/N0460F380 DCT DENSO DCT AGLOL DCT MERNU DCT XEXUL DCT BLUOX/N0474F400 DCT RAP J158 DDY J107 NORRA J100 LAS Q70 HAILO DCT KOPLE BOGET2 |
| Aircraft | A332/H-SDE3GHIJ2J3J5M1RVWXY/LB2D1 |
Departure
| Time | N/A |
|---|---|
| Airport | Frankfurt Main Airport (EDDF) |
Arrival
| Time | 2026-04-25 14:54 |
|---|---|
| Airport | Los Angeles International Airport (KLAX) |
| Time | Latitude | Longitude | Altitude | Speed | Heading |
|---|---|---|---|---|---|
| 2026-04-25 14:22 | 34.79707 | -116.18219 | 23806 ft | 355 kts | 268° |
| 2026-04-25 14:22 | 34.79758 | -116.21218 | 23808 ft | 355 kts | 268° |
| 2026-04-25 14:23 | 34.79779 | -116.24225 | 23804 ft | 355 kts | 266° |
| 2026-04-25 14:23 | 34.79708 | -116.27219 | 23802 ft | 354 kts | 265° |
| 2026-04-25 14:23 | 34.79610 | -116.30212 | 23761 ft | 352 kts | 265° |
| 2026-04-25 14:23 | 34.79512 | -116.33163 | 23412 ft | 348 kts | 265° |
| 2026-04-25 14:24 | 34.79412 | -116.36106 | 22821 ft | 348 kts | 265° |
| 2026-04-25 14:24 | 34.79312 | -116.39049 | 22260 ft | 347 kts | 265° |
| 2026-04-25 14:24 | 34.79213 | -116.41966 | 21883 ft | 344 kts | 265° |
| 2026-04-25 14:24 | 34.79114 | -116.44863 | 21805 ft | 344 kts | 265° |
| 2026-04-25 14:25 | 34.79014 | -116.47780 | 21807 ft | 344 kts | 265° |
| 2026-04-25 14:25 | 34.78914 | -116.50695 | 21808 ft | 344 kts | 265° |
| 2026-04-25 14:25 | 34.78812 | -116.53642 | 21814 ft | 344 kts | 265° |
| 2026-04-25 14:25 | 34.78776 | -116.54584 | 21815 ft | 344 kts | 264° |
| 2026-04-25 14:26 | 34.78392 | -116.59395 | 21822 ft | 344 kts | 261° |
| 2026-04-25 14:26 | 34.78113 | -116.62279 | 21827 ft | 344 kts | 261° |
| 2026-04-25 14:26 | 34.77831 | -116.65172 | 21831 ft | 344 kts | 261° |
| 2026-04-25 14:26 | 34.77550 | -116.68058 | 21835 ft | 344 kts | 261° |
| 2026-04-25 14:27 | 34.77268 | -116.70954 | 21840 ft | 345 kts | 261° |
| 2026-04-25 14:27 | 34.76986 | -116.73851 | 21761 ft | 345 kts | 261° |
| 2026-04-25 14:27 | 34.76795 | -116.75805 | 21515 ft | 344 kts | 261° |
| 2026-04-25 14:27 | 34.76423 | -116.79623 | 21193 ft | 342 kts | 261° |
| 2026-04-25 14:28 | 34.76233 | -116.81562 | 21063 ft | 342 kts | 261° |
| 2026-04-25 14:28 | 34.75952 | -116.84426 | 20868 ft | 340 kts | 261° |
| 2026-04-25 14:28 | 34.75670 | -116.87275 | 20660 ft | 339 kts | 261° |
| 2026-04-25 14:28 | 34.75384 | -116.90118 | 20463 ft | 338 kts | 261° |
| 2026-04-25 14:29 | 34.75097 | -116.92955 | 20266 ft | 337 kts | 261° |
| 2026-04-25 14:29 | 34.74811 | -116.95784 | 20064 ft | 337 kts | 261° |
| 2026-04-25 14:29 | 34.74526 | -116.98606 | 19862 ft | 336 kts | 261° |
| 2026-04-25 14:29 | 34.74240 | -117.01418 | 19679 ft | 335 kts | 261° |
| 2026-04-25 14:30 | 34.73954 | -117.04228 | 19473 ft | 335 kts | 261° |
| 2026-04-25 14:30 | 34.73382 | -117.09836 | 19084 ft | 333 kts | 261° |
| 2026-04-25 14:30 | 34.73096 | -117.12626 | 18874 ft | 332 kts | 261° |
| 2026-04-25 14:31 | 34.72811 | -117.15411 | 18696 ft | 332 kts | 261° |
| 2026-04-25 14:31 | 34.72525 | -117.18191 | 18498 ft | 331 kts | 261° |
| 2026-04-25 14:31 | 34.72238 | -117.20963 | 18381 ft | 331 kts | 261° |
| 2026-04-25 14:31 | 34.71952 | -117.23738 | 18192 ft | 331 kts | 261° |
| 2026-04-25 14:32 | 34.71664 | -117.26510 | 17983 ft | 330 kts | 261° |
| 2026-04-25 14:32 | 34.71378 | -117.29270 | 17805 ft | 329 kts | 261° |
| 2026-04-25 14:32 | 34.71092 | -117.32022 | 17615 ft | 328 kts | 261° |
| 2026-04-25 14:32 | 34.70805 | -117.34768 | 17430 ft | 327 kts | 261° |
| 2026-04-25 14:33 | 34.70519 | -117.37505 | 17239 ft | 326 kts | 261° |
| 2026-04-25 14:33 | 34.70233 | -117.40241 | 17080 ft | 328 kts | 261° |
| 2026-04-25 14:33 | 34.69942 | -117.43003 | 16868 ft | 328 kts | 261° |
| 2026-04-25 14:33 | 34.69656 | -117.45727 | 16664 ft | 323 kts | 261° |
| 2026-04-25 14:34 | 34.69370 | -117.48430 | 16480 ft | 322 kts | 261° |
| 2026-04-25 14:34 | 34.69084 | -117.51126 | 16292 ft | 322 kts | 261° |
| 2026-04-25 14:34 | 34.68798 | -117.53813 | 16100 ft | 321 kts | 261° |
| 2026-04-25 14:34 | 34.68513 | -117.56495 | 15907 ft | 320 kts | 261° |
| 2026-04-25 14:35 | 34.68227 | -117.59172 | 15715 ft | 319 kts | 262° |
| 2026-04-25 14:35 | 34.67942 | -117.61839 | 15523 ft | 318 kts | 262° |
| 2026-04-25 14:35 | 34.67661 | -117.64494 | 15328 ft | 317 kts | 262° |
| 2026-04-25 14:35 | 34.67379 | -117.67153 | 15142 ft | 316 kts | 262° |
| 2026-04-25 14:36 | 34.67099 | -117.69800 | 14953 ft | 316 kts | 262° |
| 2026-04-25 14:36 | 34.66818 | -117.72444 | 14751 ft | 315 kts | 262° |
| 2026-04-25 14:36 | 34.66537 | -117.75084 | 14568 ft | 314 kts | 262° |
| 2026-04-25 14:36 | 34.66257 | -117.77716 | 14397 ft | 313 kts | 262° |
| 2026-04-25 14:37 | 34.65977 | -117.80332 | 14224 ft | 313 kts | 262° |
| 2026-04-25 14:37 | 34.65697 | -117.82955 | 14040 ft | 312 kts | 262° |
| 2026-04-25 14:37 | 34.65379 | -117.85554 | 13917 ft | 311 kts | 257° |
| 2026-04-25 14:37 | 34.64735 | -117.88054 | 13682 ft | 312 kts | 249° |
| 2026-04-25 14:38 | 34.63901 | -117.90485 | 13104 ft | 311 kts | 248° |
| 2026-04-25 14:38 | 34.63037 | -117.92870 | 12719 ft | 307 kts | 247° |
| 2026-04-25 14:38 | 34.62176 | -117.95242 | 12368 ft | 306 kts | 248° |
| 2026-04-25 14:38 | 34.61324 | -117.97604 | 12031 ft | 305 kts | 248° |
| 2026-04-25 14:39 | 34.60476 | -117.99961 | 11797 ft | 304 kts | 248° |
| 2026-04-25 14:39 | 34.59630 | -118.02315 | 11744 ft | 303 kts | 248° |
| 2026-04-25 14:39 | 34.58779 | -118.04686 | 11808 ft | 312 kts | 248° |
| 2026-04-25 14:39 | 34.57910 | -118.07112 | 11411 ft | 315 kts | 248° |
| 2026-04-25 14:40 | 34.57033 | -118.09552 | 10816 ft | 316 kts | 248° |
| 2026-04-25 14:40 | 34.56158 | -118.11989 | 10303 ft | 310 kts | 248° |
| 2026-04-25 14:40 | 34.55315 | -118.14328 | 10051 ft | 297 kts | 248° |
| 2026-04-25 14:40 | 34.54505 | -118.16580 | 9870 ft | 285 kts | 248° |
| 2026-04-25 14:41 | 34.53723 | -118.18749 | 9654 ft | 275 kts | 248° |
| 2026-04-25 14:41 | 34.52949 | -118.20855 | 9270 ft | 273 kts | 245° |
| 2026-04-25 14:41 | 34.51978 | -118.22825 | 8874 ft | 274 kts | 235° |
| 2026-04-25 14:41 | 34.50657 | -118.24504 | 8475 ft | 275 kts | 222° |
| 2026-04-25 14:42 | 34.49033 | -118.25746 | 8083 ft | 277 kts | 208° |
| 2026-04-25 14:42 | 34.47822 | -118.26299 | 7939 ft | 274 kts | 200° |
| 2026-04-25 14:42 | 34.45426 | -118.27084 | 7866 ft | 266 kts | 199° |
| 2026-04-25 14:42 | 34.43623 | -118.27632 | 7905 ft | 268 kts | 199° |
| 2026-04-25 14:43 | 34.41808 | -118.28190 | 7912 ft | 270 kts | 198° |
| 2026-04-25 14:43 | 34.39985 | -118.28738 | 7714 ft | 271 kts | 194° |
| 2026-04-25 14:43 | 34.38086 | -118.28659 | 7473 ft | 275 kts | 181° |
| 2026-04-25 14:43 | 34.36285 | -118.29124 | 7404 ft | 262 kts | 213° |
| 2026-04-25 14:44 | 34.34780 | -118.30370 | 7408 ft | 262 kts | 214° |
| 2026-04-25 14:44 | 34.33116 | -118.31291 | 7426 ft | 267 kts | 199° |
| 2026-04-25 14:44 | 34.31261 | -118.31616 | 7354 ft | 272 kts | 187° |
| 2026-04-25 14:44 | 34.29375 | -118.31745 | 7139 ft | 270 kts | 188° |
| 2026-04-25 14:45 | 34.28104 | -118.31812 | 6999 ft | 271 kts | 183° |
| 2026-04-25 14:45 | 34.25612 | -118.31464 | 6591 ft | 273 kts | 173° |
| 2026-04-25 14:45 | 34.23782 | -118.31017 | 6404 ft | 264 kts | 172° |
| 2026-04-25 14:45 | 34.22018 | -118.30580 | 6247 ft | 253 kts | 171° |
| 2026-04-25 14:46 | 34.20350 | -118.30053 | 6053 ft | 245 kts | 161° |
| 2026-04-25 14:46 | 34.18821 | -118.29178 | 5988 ft | 246 kts | 156° |
| 2026-04-25 14:46 | 34.17300 | -118.28181 | 5964 ft | 242 kts | 154° |
| 2026-04-25 14:46 | 34.15876 | -118.27224 | 5966 ft | 227 kts | 155° |
| 2026-04-25 14:47 | 34.14513 | -118.26312 | 5874 ft | 222 kts | 154° |
| 2026-04-25 14:47 | 34.13627 | -118.25720 | 5713 ft | 220 kts | 153° |
| 2026-04-25 14:47 | 34.11838 | -118.24532 | 5371 ft | 217 kts | 153° |
| 2026-04-25 14:47 | 34.10519 | -118.23662 | 5130 ft | 215 kts | 153° |
| 2026-04-25 14:48 | 34.09213 | -118.22801 | 4947 ft | 210 kts | 153° |
| 2026-04-25 14:48 | 34.07957 | -118.21972 | 4831 ft | 203 kts | 152° |
| 2026-04-25 14:48 | 34.06735 | -118.21165 | 4660 ft | 197 kts | 152° |
| 2026-04-25 14:48 | 34.05558 | -118.20385 | 4514 ft | 189 kts | 151° |
| 2026-04-25 14:49 | 34.04410 | -118.19626 | 4273 ft | 187 kts | 152° |
| 2026-04-25 14:49 | 34.03224 | -118.19025 | 3980 ft | 186 kts | 173° |
| 2026-04-25 14:49 | 34.01982 | -118.19344 | 3716 ft | 187 kts | 211° |
| 2026-04-25 14:49 | 34.01162 | -118.20535 | 3480 ft | 188 kts | 241° |
| 2026-04-25 14:50 | 34.00519 | -118.21902 | 3245 ft | 187 kts | 237° |
| 2026-04-25 14:50 | 33.99981 | -118.23325 | 2982 ft | 187 kts | 246° |
| 2026-04-25 14:50 | 33.99492 | -118.24744 | 2787 ft | 180 kts | 245° |
| 2026-04-25 14:50 | 33.99034 | -118.26104 | 2561 ft | 171 kts | 246° |
| 2026-04-25 14:51 | 33.98558 | -118.27388 | 2329 ft | 163 kts | 243° |
| 2026-04-25 14:51 | 33.98077 | -118.28590 | 2169 ft | 158 kts | 242° |
| 2026-04-25 14:51 | 33.97694 | -118.29823 | 2045 ft | 155 kts | 248° |
| 2026-04-25 14:51 | 33.97305 | -118.30991 | 2033 ft | 145 kts | 243° |
| 2026-04-25 14:52 | 33.96818 | -118.32104 | 1928 ft | 157 kts | 239° |
| 2026-04-25 14:52 | 33.96289 | -118.33283 | 1595 ft | 162 kts | 239° |
| 2026-04-25 14:52 | 33.95827 | -118.34509 | 1206 ft | 162 kts | 253° |
| 2026-04-25 14:52 | 33.95705 | -118.35391 | 1009 ft | 157 kts | 262° |
| 2026-04-25 14:53 | 33.95538 | -118.37051 | 668 ft | 142 kts | 260° |
| 2026-04-25 14:53 | 33.95417 | -118.38185 | 482 ft | 133 kts | 260° |
| 2026-04-25 14:53 | 33.95316 | -118.39244 | 293 ft | 121 kts | 261° |
| 2026-04-25 14:53 | 33.95213 | -118.40238 | 163 ft | 122 kts | 261° |
| 2026-04-25 14:54 | 33.95126 | -118.41064 | 128 ft | 46 kts | 263° |
| 2026-04-25 14:54 | 33.95096 | -118.41353 | 127 ft | 34 kts | 262° |
| 2026-04-25 14:54 | 33.95063 | -118.41632 | 127 ft | 34 kts | 261° |
| 2026-04-25 14:54 | 33.94968 | -118.41879 | 124 ft | 30 kts | 233° |
| 2026-04-25 14:55 | 33.94923 | -118.41951 | 127 ft | 0 kts | 233° |
| 2026-04-25 14:56 | 33.94919 | -118.41958 | 126 ft | 0 kts | 233° |
| 2026-04-25 14:56 | 33.94913 | -118.41969 | 125 ft | 4 kts | 233° |
| 2026-04-25 14:56 | 33.94884 | -118.42014 | 124 ft | 9 kts | 233° |
| 2026-04-25 14:57 | 33.94836 | -118.42089 | 125 ft | 14 kts | 232° |
| 2026-04-25 14:57 | 33.94770 | -118.42194 | 124 ft | 16 kts | 232° |
| 2026-04-25 14:57 | 33.94714 | -118.42237 | 125 ft | 7 kts | 171° |
| 2026-04-25 14:57 | 33.94694 | -118.42195 | 124 ft | 10 kts | 103° |
| 2026-04-25 14:58 | 33.94701 | -118.42063 | 126 ft | 20 kts | 83° |
| 2026-04-25 14:58 | 33.94713 | -118.41942 | 128 ft | 10 kts | 83° |
| 2026-04-25 14:58 | 33.94724 | -118.41840 | 127 ft | 15 kts | 83° |
| 2026-04-25 14:58 | 33.94738 | -118.41703 | 128 ft | 18 kts | 83° |
| 2026-04-25 14:59 | 33.94740 | -118.41583 | 128 ft | 6 kts | 117° |
| 2026-04-25 14:59 | 33.94712 | -118.41570 | 128 ft | 8 kts | 168° |
| 2026-04-25 14:59 | 33.94673 | -118.41516 | 125 ft | 10 kts | 94° |
| 2026-04-25 14:59 | 33.94682 | -118.41412 | 128 ft | 15 kts | 83° |
| 2026-04-25 15:00 | 33.94688 | -118.41344 | 130 ft | 1 kts | 84° |
| 2026-04-25 15:00 | 33.94689 | -118.41337 | 125 ft | 0 kts | 84° |
| 2026-04-25 15:00 | 33.94689 | -118.41313 | 125 ft | 5 kts | 95° |
| 2026-04-25 15:00 | 33.94668 | -118.41289 | 124 ft | 7 kts | 155° |
| 2026-04-25 15:01 | 33.94577 | -118.41268 | 127 ft | 17 kts | 172° |
| 2026-04-25 15:01 | 33.94450 | -118.41247 | 127 ft | 20 kts | 172° |
| 2026-04-25 15:01 | 33.94330 | -118.41227 | 125 ft | 16 kts | 172° |
| 2026-04-25 15:01 | 33.94226 | -118.41215 | 125 ft | 17 kts | 175° |
| 2026-04-25 15:02 | 33.94096 | -118.41196 | 127 ft | 21 kts | 173° |
| 2026-04-25 15:02 | 33.93962 | -118.41177 | 127 ft | 11 kts | 173° |
| 2026-04-25 15:02 | 33.93873 | -118.41168 | 125 ft | 14 kts | 186° |
| 2026-04-25 15:02 | 33.93843 | -118.41208 | 125 ft | 10 kts | 255° |
| 2026-04-25 15:03 | 33.93880 | -118.41260 | 127 ft | 10 kts | 341° |
| 2026-04-25 15:03 | 33.93965 | -118.41277 | 127 ft | 15 kts | 352° |
| 2026-04-25 15:03 | 33.94083 | -118.41294 | 124 ft | 19 kts | 353° |
| 2026-04-25 15:03 | 33.94226 | -118.41316 | 127 ft | 23 kts | 353° |
| 2026-04-25 15:04 | 33.94400 | -118.41342 | 127 ft | 27 kts | 353° |
| 2026-04-25 15:04 | 33.94601 | -118.41370 | 127 ft | 29 kts | 353° |
| 2026-04-25 15:04 | 33.94687 | -118.41335 | 125 ft | 13 kts | 73° |
| 2026-04-25 15:04 | 33.94710 | -118.41210 | 128 ft | 17 kts | 72° |
| 2026-04-25 15:05 | 33.94738 | -118.41050 | 129 ft | 22 kts | 84° |
| 2026-04-25 15:05 | 33.94736 | -118.40935 | 129 ft | 12 kts | 123° |
| 2026-04-25 15:05 | 33.94655 | -118.40906 | 127 ft | 14 kts | 173° |
| 2026-04-25 15:06 | 33.94550 | -118.40862 | 124 ft | 10 kts | 109° |
| 2026-04-25 15:06 | 33.94542 | -118.40794 | 125 ft | 1 kts | 97° |
| 2026-04-25 15:06 | 33.94541 | -118.40785 | 126 ft | 0 kts | 97° |